EZY89AL EGPH-GCTS
Flight info
| Callsign | EZY89AL |
|---|---|
| Flight time | N/A |
| Altitude | 38000 |
| Route | GOSAM1C GOSAM DCT TRN DCT DEGOS DCT LASNO/M080F380 T9 BEGAS/N0467F380 DCT RIPEL DCT ORTIS ORTIS1G |
| Aircraft | A320/M-V/LB1 |
Departure
| Time | N/A |
|---|---|
| Airport | Edinburgh Airport (EGPH) |
Arrival
| Time | 2026-05-04 14:32 |
|---|---|
| Airport | Tenerife Sur Airport (GCTS) |
| Time | Latitude | Longitude | Altitude | Speed | Heading |
|---|---|---|---|---|---|
| 2026-05-04 13:43 | 32.72279 | -15.94909 | 38133 ft | 405 kts | 207° |
| 2026-05-04 13:43 | 32.69662 | -15.96140 | 38136 ft | 405 kts | 207° |
| 2026-05-04 13:44 | 32.64459 | -15.98583 | 38109 ft | 404 kts | 207° |
| 2026-05-04 13:44 | 32.59222 | -16.01035 | 38121 ft | 404 kts | 207° |
| 2026-05-04 13:45 | 32.53998 | -16.03473 | 38127 ft | 403 kts | 207° |
| 2026-05-04 13:45 | 32.48778 | -16.05914 | 38132 ft | 403 kts | 207° |
| 2026-05-04 13:46 | 32.43564 | -16.08344 | 38124 ft | 402 kts | 207° |
| 2026-05-04 13:46 | 32.38380 | -16.10735 | 38128 ft | 403 kts | 204° |
| 2026-05-04 13:47 | 32.32806 | -16.12116 | 38126 ft | 410 kts | 197° |
| 2026-05-04 13:47 | 32.27186 | -16.13308 | 38127 ft | 410 kts | 197° |
| 2026-05-04 13:48 | 32.21555 | -16.14503 | 38118 ft | 412 kts | 197° |
| 2026-05-04 13:48 | 32.15884 | -16.15714 | 38110 ft | 420 kts | 197° |
| 2026-05-04 13:49 | 32.10068 | -16.16959 | 38094 ft | 427 kts | 197° |
| 2026-05-04 13:49 | 32.04175 | -16.18208 | 38119 ft | 431 kts | 197° |
| 2026-05-04 13:50 | 31.98251 | -16.19453 | 38115 ft | 432 kts | 197° |
| 2026-05-04 13:50 | 31.92358 | -16.20703 | 38122 ft | 432 kts | 197° |
| 2026-05-04 13:51 | 31.86431 | -16.21962 | 38123 ft | 432 kts | 197° |
| 2026-05-04 13:51 | 31.80526 | -16.23210 | 38114 ft | 432 kts | 197° |
| 2026-05-04 13:52 | 31.71634 | -16.25085 | 38124 ft | 432 kts | 197° |
| 2026-05-04 13:53 | 31.65732 | -16.26324 | 38133 ft | 433 kts | 197° |
| 2026-05-04 13:53 | 31.59797 | -16.27570 | 38134 ft | 433 kts | 197° |
| 2026-05-04 13:54 | 31.50937 | -16.29438 | 38132 ft | 432 kts | 197° |
| 2026-05-04 13:55 | 31.42063 | -16.31291 | 38145 ft | 431 kts | 197° |
| 2026-05-04 13:55 | 31.33238 | -16.33115 | 38141 ft | 430 kts | 197° |
| 2026-05-04 13:56 | 31.27340 | -16.34343 | 38119 ft | 429 kts | 197° |
| 2026-05-04 13:57 | 31.18560 | -16.36174 | 38143 ft | 427 kts | 197° |
| 2026-05-04 13:58 | 31.06858 | -16.38610 | 38140 ft | 426 kts | 197° |
| 2026-05-04 13:58 | 30.98136 | -16.40428 | 38124 ft | 425 kts | 197° |
| 2026-05-04 13:59 | 30.92310 | -16.41637 | 38135 ft | 424 kts | 197° |
| 2026-05-04 14:00 | 30.83627 | -16.43432 | 38137 ft | 424 kts | 197° |
| 2026-05-04 14:00 | 30.74899 | -16.45235 | 38139 ft | 423 kts | 197° |
| 2026-05-04 14:01 | 30.69138 | -16.46427 | 38125 ft | 422 kts | 198° |
| 2026-05-04 14:02 | 30.60457 | -16.48212 | 38129 ft | 422 kts | 197° |
| 2026-05-04 14:02 | 30.54684 | -16.49397 | 38129 ft | 421 kts | 198° |
| 2026-05-04 14:03 | 30.48938 | -16.50580 | 38134 ft | 421 kts | 197° |
| 2026-05-04 14:03 | 30.43169 | -16.51756 | 38120 ft | 420 kts | 198° |
| 2026-05-04 14:04 | 30.34551 | -16.53519 | 38135 ft | 418 kts | 198° |
| 2026-05-04 14:04 | 30.28829 | -16.54693 | 38134 ft | 417 kts | 198° |
| 2026-05-04 14:05 | 30.20259 | -16.56441 | 38134 ft | 416 kts | 198° |
| 2026-05-04 14:06 | 30.14544 | -16.57605 | 38117 ft | 416 kts | 198° |
| 2026-05-04 14:06 | 30.08882 | -16.58765 | 38129 ft | 416 kts | 198° |
| 2026-05-04 14:07 | 30.03184 | -16.59930 | 38132 ft | 415 kts | 198° |
| 2026-05-04 14:07 | 29.97475 | -16.61090 | 38130 ft | 415 kts | 198° |
| 2026-05-04 14:08 | 29.91831 | -16.62229 | 38127 ft | 414 kts | 198° |
| 2026-05-04 14:08 | 29.86148 | -16.63384 | 38099 ft | 414 kts | 198° |
| 2026-05-04 14:09 | 29.77641 | -16.65117 | 38118 ft | 413 kts | 198° |
| 2026-05-04 14:10 | 29.69171 | -16.66848 | 38127 ft | 414 kts | 198° |
| 2026-05-04 14:10 | 29.63498 | -16.67985 | 38119 ft | 414 kts | 198° |
| 2026-05-04 14:11 | 29.57815 | -16.69124 | 38122 ft | 413 kts | 198° |
| 2026-05-04 14:11 | 29.52197 | -16.70258 | 37786 ft | 410 kts | 198° |
| 2026-05-04 14:11 | 29.49399 | -16.70819 | 37244 ft | 406 kts | 198° |
| 2026-05-04 14:12 | 29.46629 | -16.71372 | 36734 ft | 401 kts | 198° |
| 2026-05-04 14:12 | 29.43887 | -16.71922 | 36222 ft | 398 kts | 198° |
| 2026-05-04 14:12 | 29.38418 | -16.73026 | 35239 ft | 399 kts | 198° |
| 2026-05-04 14:13 | 29.35673 | -16.73581 | 34757 ft | 402 kts | 198° |
| 2026-05-04 14:13 | 29.32907 | -16.74142 | 34277 ft | 405 kts | 198° |
| 2026-05-04 14:13 | 29.30132 | -16.74709 | 33609 ft | 413 kts | 198° |
| 2026-05-04 14:13 | 29.27279 | -16.75287 | 32949 ft | 418 kts | 198° |
| 2026-05-04 14:14 | 29.24388 | -16.75864 | 32305 ft | 422 kts | 197° |
| 2026-05-04 14:14 | 29.18538 | -16.77026 | 31065 ft | 430 kts | 197° |
| 2026-05-04 14:14 | 29.15573 | -16.77618 | 30467 ft | 433 kts | 197° |
| 2026-05-04 14:15 | 29.09618 | -16.78807 | 29142 ft | 440 kts | 196° |
| 2026-05-04 14:15 | 29.03581 | -16.79992 | 27802 ft | 437 kts | 196° |
| 2026-05-04 14:16 | 28.97642 | -16.81154 | 26547 ft | 429 kts | 195° |
| 2026-05-04 14:16 | 28.94704 | -16.81743 | 25927 ft | 426 kts | 195° |
| 2026-05-04 14:17 | 28.88823 | -16.82937 | 24754 ft | 445 kts | 195° |
| 2026-05-04 14:17 | 28.85733 | -16.83570 | 24180 ft | 455 kts | 194° |
| 2026-05-04 14:17 | 28.79436 | -16.84824 | 22934 ft | 461 kts | 194° |
| 2026-05-04 14:18 | 28.76326 | -16.85430 | 22290 ft | 456 kts | 194° |
| 2026-05-04 14:18 | 28.70122 | -16.86635 | 21001 ft | 449 kts | 194° |
| 2026-05-04 14:19 | 28.63999 | -16.87845 | 19786 ft | 442 kts | 194° |
| 2026-05-04 14:19 | 28.61014 | -16.88439 | 19205 ft | 439 kts | 194° |
| 2026-05-04 14:19 | 28.58016 | -16.89031 | 18627 ft | 436 kts | 194° |
| 2026-05-04 14:19 | 28.55033 | -16.89620 | 17999 ft | 433 kts | 194° |
| 2026-05-04 14:20 | 28.52077 | -16.90205 | 17354 ft | 429 kts | 194° |
| 2026-05-04 14:20 | 28.49141 | -16.90784 | 16716 ft | 425 kts | 194° |
| 2026-05-04 14:20 | 28.46232 | -16.91357 | 16065 ft | 422 kts | 194° |
| 2026-05-04 14:21 | 28.40546 | -16.92478 | 14857 ft | 412 kts | 194° |
| 2026-05-04 14:21 | 28.37744 | -16.93031 | 14270 ft | 405 kts | 194° |
| 2026-05-04 14:21 | 28.34977 | -16.93574 | 13668 ft | 401 kts | 194° |
| 2026-05-04 14:21 | 28.32220 | -16.94116 | 13024 ft | 402 kts | 194° |
| 2026-05-04 14:22 | 28.29450 | -16.94660 | 12388 ft | 401 kts | 193° |
| 2026-05-04 14:22 | 28.26720 | -16.95195 | 11768 ft | 394 kts | 193° |
| 2026-05-04 14:22 | 28.24025 | -16.95725 | 11162 ft | 392 kts | 193° |
| 2026-05-04 14:22 | 28.21330 | -16.96257 | 10567 ft | 394 kts | 193° |
| 2026-05-04 14:23 | 28.15921 | -16.96649 | 9681 ft | 389 kts | 168° |
| 2026-05-04 14:23 | 28.13458 | -16.95576 | 9676 ft | 369 kts | 160° |
| 2026-05-04 14:23 | 28.11191 | -16.94504 | 9674 ft | 335 kts | 161° |
| 2026-05-04 14:24 | 28.09127 | -16.93557 | 9582 ft | 307 kts | 162° |
| 2026-05-04 14:24 | 28.07164 | -16.92676 | 9067 ft | 298 kts | 162° |
| 2026-05-04 14:24 | 28.05261 | -16.91832 | 8568 ft | 290 kts | 161° |
| 2026-05-04 14:24 | 28.03416 | -16.91008 | 8081 ft | 287 kts | 161° |
| 2026-05-04 14:25 | 28.01549 | -16.90168 | 7595 ft | 290 kts | 161° |
| 2026-05-04 14:25 | 27.97822 | -16.88480 | 6634 ft | 281 kts | 160° |
| 2026-05-04 14:25 | 27.96051 | -16.87638 | 6149 ft | 273 kts | 153° |
| 2026-05-04 14:26 | 27.94723 | -16.86184 | 5642 ft | 266 kts | 117° |
| 2026-05-04 14:26 | 27.94372 | -16.84172 | 5029 ft | 264 kts | 81° |
| 2026-05-04 14:26 | 27.95133 | -16.82346 | 4539 ft | 254 kts | 46° |
| 2026-05-04 14:26 | 27.96320 | -16.80925 | 4196 ft | 243 kts | 56° |
| 2026-05-04 14:27 | 27.96897 | -16.79209 | 3912 ft | 232 kts | 75° |
| 2026-05-04 14:27 | 27.97382 | -16.77497 | 3612 ft | 224 kts | 69° |
| 2026-05-04 14:27 | 27.97940 | -16.75879 | 3335 ft | 216 kts | 68° |
| 2026-05-04 14:27 | 27.98486 | -16.74329 | 3076 ft | 206 kts | 68° |
| 2026-05-04 14:28 | 27.98830 | -16.73347 | 2895 ft | 198 kts | 68° |
| 2026-05-04 14:28 | 27.99321 | -16.71943 | 2645 ft | 184 kts | 68° |
| 2026-05-04 14:28 | 27.99775 | -16.70643 | 2413 ft | 171 kts | 68° |
| 2026-05-04 14:28 | 28.00195 | -16.69440 | 2191 ft | 158 kts | 64° |
| 2026-05-04 14:29 | 28.00970 | -16.67222 | 1782 ft | 143 kts | 68° |
| 2026-05-04 14:29 | 28.01663 | -16.65239 | 1422 ft | 133 kts | 66° |
| 2026-05-04 14:30 | 28.01992 | -16.64294 | 1259 ft | 128 kts | 66° |
| 2026-05-04 14:30 | 28.02325 | -16.63341 | 1098 ft | 133 kts | 69° |
| 2026-05-04 14:30 | 28.02992 | -16.61399 | 730 ft | 129 kts | 70° |
| 2026-05-04 14:31 | 28.03329 | -16.60455 | 586 ft | 132 kts | 72° |
| 2026-05-04 14:31 | 28.03994 | -16.58565 | 223 ft | 128 kts | 72° |
| 2026-05-04 14:32 | 28.04466 | -16.57190 | 211 ft | 59 kts | 68° |
| 2026-05-04 14:32 | 28.04649 | -16.56884 | 209 ft | 18 kts | 47° |
| 2026-05-04 14:32 | 28.04677 | -16.56850 | 217 ft | 0 kts | 48° |
| 2026-05-04 14:33 | 28.04678 | -16.56849 | 217 ft | 2 kts | 48° |
| 2026-05-04 14:33 | 28.04715 | -16.56802 | 212 ft | 13 kts | 48° |
| 2026-05-04 14:33 | 28.04784 | -16.56796 | 216 ft | 11 kts | 299° |
| 2026-05-04 14:34 | 28.04773 | -16.56869 | 214 ft | 10 kts | 249° |
| 2026-05-04 14:34 | 28.04749 | -16.56940 | 208 ft | 9 kts | 248° |
| 2026-05-04 14:34 | 28.04715 | -16.57036 | 208 ft | 14 kts | 249° |
| 2026-05-04 14:34 | 28.04694 | -16.57135 | 212 ft | 12 kts | 290° |
| 2026-05-04 14:35 | 28.04764 | -16.57179 | 206 ft | 11 kts | 338° |
| 2026-05-04 14:35 | 28.04776 | -16.57249 | 210 ft | 9 kts | 253° |
| 2026-05-04 14:35 | 28.04751 | -16.57322 | 213 ft | 12 kts | 248° |
| 2026-05-04 14:35 | 28.04722 | -16.57405 | 212 ft | 11 kts | 248° |
| 2026-05-04 14:36 | 28.04694 | -16.57483 | 213 ft | 10 kts | 248° |
| 2026-05-04 14:36 | 28.04668 | -16.57554 | 206 ft | 9 kts | 247° |
| 2026-05-04 14:36 | 28.04688 | -16.57591 | 214 ft | 5 kts | 310° |
| 2026-05-04 14:36 | 28.04709 | -16.57616 | 210 ft | 4 kts | 323° |
| 2026-05-04 14:37 | 28.04730 | -16.57628 | 201 ft | 3 kts | 339° |
| 2026-05-04 14:37 | 28.04731 | -16.57629 | 201 ft | 0 kts | 339° |